Time;durP1;ratioP1;P1;durP2;ratioP2;P2;SDS_P1;SDS_P2;PMS_P1;PMS_P2;Temp;Humidity;BMP_temperature;BMP_pressure;BME280_temperature;BME280_humidity;BME280_pressure;Samples;Min_cycle;Max_cycle;Signal;HPM_P1;HPM_P2
2021/07/01 00:02:00;;;;;;;1999.90;999.90;;;13.60;99.90;;;;;;5093932;28;20547;-75
2021/07/01 00:04:26;;;;;;;1999.90;999.90;;;13.50;99.90;;;;;;5094104;28;20323;-76
2021/07/01 00:06:52;;;;;;;1999.90;999.90;;;13.40;99.90;;;;;;5094237;28;20262;-75
2021/07/01 00:09:21;;;;;;;1999.90;999.90;;;13.50;99.90;;;;;;5075982;28;20257;-75
2021/07/01 00:11:48;;;;;;;1999.90;999.90;;;13.50;99.90;;;;;;5093962;28;20192;-75
2021/07/01 00:14:18;;;;;;;1999.90;999.90;;;13.40;99.90;;;;;;5076396;28;20203;-75
2021/07/01 00:16:43;;;;;;;1999.90;999.90;;;13.40;99.90;;;;;;5093982;28;20168;-75
2021/07/01 00:19:09;;;;;;;1999.90;999.90;;;13.50;99.90;;;;;;5094020;28;20161;-75
2021/07/01 00:21:35;;;;;;;1999.90;999.90;;;13.40;99.90;;;;;;5093873;28;20178;-76
2021/07/01 00:24:00;;;;;;;1999.90;999.90;;;13.40;99.90;;;;;;5093658;28;20183;-75
2021/07/01 00:26:26;;;;;;;1999.90;999.90;;;13.20;99.90;;;;;;5075614;28;20180;-76
2021/07/01 00:28:52;;;;;;;1999.90;999.90;;;13.20;99.90;;;;;;5094020;28;20252;-75
2021/07/01 00:31:19;;;;;;;1999.90;999.90;;;13.20;99.90;;;;;;5093783;28;20221;-75
2021/07/01 00:33:45;;;;;;;1999.90;999.90;;;13.20;99.90;;;;;;5093510;28;20173;-75
2021/07/01 00:36:10;;;;;;;1999.90;999.90;;;13.20;99.90;;;;;;5075534;28;20317;-75
2021/07/01 00:38:36;;;;;;;1999.90;999.90;;;13.20;99.90;;;;;;5093748;28;20175;-75
2021/07/01 00:41:02;;;;;;;1999.90;999.90;;;13.10;99.90;;;;;;5075440;28;20624;-74
2021/07/01 00:43:28;;;;;;;1999.90;999.90;;;13.20;99.90;;;;;;5093218;28;20172;-76
2021/07/01 00:45:54;;;;;;;1999.90;999.90;;;13.10;99.90;;;;;;5093335;28;20231;-76
2021/07/01 00:48:20;;;;;;;1999.90;999.90;;;13.10;99.90;;;;;;5093469;28;20182;-75
2021/07/01 00:50:46;;;;;;;1999.90;999.90;;;13.20;99.90;;;;;;5075146;28;20661;-76
2021/07/01 00:53:12;;;;;;;1999.90;999.90;;;13.10;99.90;;;;;;5093389;28;20169;-75
2021/07/01 00:55:38;;;;;;;1999.90;999.90;;;13.10;99.90;;;;;;5093350;28;20223;-75
2021/07/01 00:58:07;;;;;;;1999.90;999.90;;;13.10;99.90;;;;;;5093492;28;20225;-75
2021/07/01 01:03:04;;;;;;;1999.90;999.90;;;13.10;99.90;;;;;;5093562;28;20721;-75
2021/07/01 01:05:30;;;;;;;1999.90;999.90;;;13.10;99.90;;;;;;5093168;28;20271;-75
2021/07/01 01:07:56;;;;;;;1999.90;999.90;;;13.10;99.90;;;;;;5074468;28;20178;-76
2021/07/01 01:10:21;;;;;;;1999.90;999.90;;;13.10;99.90;;;;;;5093187;28;20171;-75
2021/07/01 01:12:47;;;;;;;1999.90;999.90;;;13.10;99.90;;;;;;5074909;28;20221;-75
2021/07/01 01:15:13;;;;;;;1999.90;999.90;;;13.10;99.90;;;;;;5074839;28;20199;-75
2021/07/01 01:17:42;;;;;;;1999.90;999.90;;;13.10;99.90;;;;;;5093131;28;20174;-75
2021/07/01 01:20:09;;;;;;;1999.90;999.90;;;13.10;99.90;;;;;;5093146;28;20173;-75
2021/07/01 01:22:34;;;;;;;1999.90;999.90;;;13.10;99.90;;;;;;5093031;28;20168;-75
2021/07/01 01:25:00;;;;;;;1999.90;999.90;;;13.10;99.90;;;;;;5092804;28;20561;-76
2021/07/01 01:27:25;;;;;;;1999.90;999.90;;;13.30;99.90;;;;;;5093313;28;20176;-75
2021/07/01 01:29:51;;;;;;;1999.90;999.90;;;13.20;99.90;;;;;;5074864;28;20548;-74
2021/07/01 01:32:17;;;;;;;1999.90;999.90;;;13.30;99.90;;;;;;5092771;28;20573;-75
2021/07/01 01:34:42;;;;;;;1999.90;999.90;;;13.40;99.90;;;;;;5093043;28;20197;-75
2021/07/01 01:37:09;;;;;;;1999.90;999.90;;;13.40;99.90;;;;;;5092880;28;20204;-77
2021/07/01 01:39:35;;;;;;;1999.90;999.90;;;13.30;99.90;;;;;;5090765;28;20242;-76
2021/07/01 01:42:00;;;;;;;1999.90;999.90;;;13.40;99.90;;;;;;5083499;28;20653;-76
2021/07/01 01:44:26;;;;;;;1999.90;999.90;;;13.50;99.90;;;;;;5090583;28;20207;-76
2021/07/01 01:46:52;;;;;;;1999.90;999.90;;;13.50;99.90;;;;;;5072565;28;20259;-76
2021/07/01 01:49:20;;;;;;;1999.90;999.90;;;13.40;99.90;;;;;;5091483;28;20608;-76
2021/07/01 01:51:47;;;;;;;1999.90;999.90;;;13.30;99.90;;;;;;5092709;28;20249;-76
2021/07/01 01:54:12;;;;;;;1999.90;999.90;;;13.30;99.90;;;;;;5074424;28;20689;-76
2021/07/01 01:56:47;;;;;;;1999.90;999.90;;;13.30;99.90;;;;;;5091910;28;20194;-76
2021/07/01 01:59:13;;;;;;;1999.90;999.90;;;13.30;99.90;;;;;;5092930;28;20209;-76
2021/07/01 02:01:40;;;;;;;1999.90;999.90;;;13.40;99.90;;;;;;5074646;28;20180;-76
2021/07/01 02:04:06;;;;;;;1999.90;999.90;;;13.50;99.90;;;;;;5074473;28;20295;-76
2021/07/01 02:06:33;;;;;;;1999.90;999.90;;;13.50;99.90;;;;;;5092621;28;20196;-76
2021/07/01 02:09:00;;;;;;;1999.90;999.90;;;13.50;99.90;;;;;;5092355;28;20167;-76
2021/07/01 02:11:26;;;;;;;1999.90;999.90;;;13.70;99.90;;;;;;5092366;28;20184;-76
2021/07/01 02:13:51;;;;;;;1999.90;999.90;;;13.60;99.90;;;;;;5092842;28;20177;-75
2021/07/01 02:16:17;;;;;;;1999.90;999.90;;;13.70;99.90;;;;;;5092532;28;20209;-77
2021/07/01 02:18:43;;;;;;;1999.90;999.90;;;13.80;99.90;;;;;;5092527;28;20541;-76
2021/07/01 02:21:08;;;;;;;1999.90;999.90;;;13.80;99.90;;;;;;5096653;28;20537;-75
2021/07/01 02:23:34;;;;;;;1999.90;999.90;;;13.60;99.90;;;;;;5077987;28;20162;-76
2021/07/01 02:26:00;;;;;;;1999.90;999.90;;;13.60;99.90;;;;;;5095985;28;20348;-76
2021/07/01 02:28:25;;;;;;;1999.90;999.90;;;13.70;99.90;;;;;;5096129;28;20186;-76
2021/07/01 02:30:51;;;;;;;1999.90;999.90;;;13.50;99.90;;;;;;5096330;28;20176;-75
2021/07/01 02:33:16;;;;;;;1999.90;999.90;;;13.50;99.90;;;;;;5095992;28;20641;-76
2021/07/01 02:35:42;;;;;;;1999.90;999.90;;;13.40;99.90;;;;;;5095865;28;20558;-77
2021/07/01 02:38:08;;;;;;;1999.90;999.90;;;13.30;99.90;;;;;;5096266;28;20171;-76
2021/07/01 02:40:33;;;;;;;1999.90;999.90;;;13.30;99.90;;;;;;5095850;28;20175;-77
2021/07/01 02:42:59;;;;;;;1999.90;999.90;;;13.30;99.90;;;;;;5095888;28;20616;-76
2021/07/01 02:45:25;;;;;;;1999.90;999.90;;;13.30;99.90;;;;;;5095731;28;20193;-76
2021/07/01 02:47:51;;;;;;;1999.90;999.90;;;13.40;99.90;;;;;;5077582;28;20201;-75
2021/07/01 02:50:16;;;;;;;1999.90;999.90;;;13.40;99.90;;;;;;5077352;28;20648;-75
2021/07/01 02:52:42;;;;;;;1999.90;999.90;;;13.50;99.90;;;;;;5095668;28;20239;-75
2021/07/01 02:55:09;;;;;;;1999.90;999.90;;;13.60;99.90;;;;;;5095808;28;20195;-75
2021/07/01 02:57:36;;;;;;;1999.90;999.90;;;13.60;99.90;;;;;;5095607;28;20259;-76
2021/07/01 03:00:04;;;;;;;1999.90;999.90;;;13.60;99.90;;;;;;5095744;28;20168;-75
2021/07/01 03:02:30;;;;;;;1999.90;999.90;;;13.40;99.90;;;;;;5095409;28;20174;-76
2021/07/01 03:04:56;;;;;;;1999.90;999.90;;;13.30;99.90;;;;;;5077175;28;20226;-75
2021/07/01 03:07:22;;;;;;;1999.90;999.90;;;13.20;99.90;;;;;;5084303;28;20262;-75
2021/07/01 03:09:47;;;;;;;1999.90;999.90;;;13.10;99.90;;;;;;5057123;28;20258;-75
2021/07/01 03:12:13;;;;;;;1999.90;999.90;;;13.10;99.90;;;;;;5075055;28;20195;-75
2021/07/01 03:14:39;;;;;;;1999.90;999.90;;;13.20;99.90;;;;;;5075007;28;20212;-76
2021/07/01 03:17:05;;;;;;;1999.90;999.90;;;13.20;99.90;;;;;;5074897;28;20172;-76
2021/07/01 03:19:30;;;;;;;1999.90;999.90;;;13.40;99.90;;;;;;5064045;28;20182;-76
2021/07/01 03:21:56;;;;;;;1999.90;999.90;;;13.30;99.90;;;;;;5095092;28;20171;-76
2021/07/01 03:24:21;;;;;;;1999.90;999.90;;;13.20;99.90;;;;;;5093699;28;20210;-75
2021/07/01 03:26:47;;;;;;;1999.90;999.90;;;13.10;99.90;;;;;;5102395;22;20223;-77
2021/07/01 03:29:13;;;;;;;1999.90;999.90;;;13.10;99.90;;;;;;5074425;28;20258;-77
2021/07/01 03:31:39;;;;;;;1999.90;999.90;;;13.20;99.90;;;;;;5075928;28;20202;-77
2021/07/01 03:34:04;;;;;;;1999.90;999.90;;;13.30;99.90;;;;;;5060197;28;20572;-77
2021/07/01 03:36:30;;;;;;;1999.90;999.90;;;13.20;99.90;;;;;;5075723;28;20249;-77
2021/07/01 03:38:56;;;;;;;1999.90;999.90;;;13.30;99.90;;;;;;5075343;28;20173;-77
2021/07/01 03:41:21;;;;;;;1999.90;999.90;;;13.20;99.90;;;;;;5075159;28;20172;-77
2021/07/01 03:43:50;;;;;;;1999.90;999.90;;;13.20;99.90;;;;;;5057049;28;20189;-77
2021/07/01 03:46:16;;;;;;;1999.90;999.90;;;13.30;99.90;;;;;;5075288;28;20290;-77
2021/07/01 03:48:41;;;;;;;1999.90;999.90;;;13.40;99.90;;;;;;5075379;28;20256;-77
2021/07/01 03:51:07;;;;;;;1999.90;999.90;;;13.40;99.90;;;;;;5074493;28;20198;-77
2021/07/01 03:53:33;;;;;;;1999.90;999.90;;;13.40;99.90;;;;;;5075183;28;20183;-77
2021/07/01 03:55:59;;;;;;;1999.90;999.90;;;13.40;99.90;;;;;;5075404;28;20311;-77
2021/07/01 03:58:25;;;;;;;1999.90;999.90;;;13.40;99.90;;;;;;5075108;28;20554;-77
2021/07/01 04:00:51;;;;;;;1999.90;999.90;;;13.30;99.90;;;;;;5072626;28;20179;-76
2021/07/01 04:03:16;;;;;;;1999.90;999.90;;;13.20;99.90;;;;;;5074056;28;20603;-77
2021/07/01 04:05:42;;;;;;;1999.90;999.90;;;13.10;99.90;;;;;;5070991;28;20195;-77
2021/07/01 04:08:08;;;;;;;1999.90;999.90;;;13.20;99.90;;;;;;5052976;28;20639;-77
2021/07/01 04:10:33;;;;;;;1999.90;999.90;;;13.30;99.90;;;;;;5065389;28;20705;-77
2021/07/01 04:12:59;;;;;;;1999.90;999.90;;;13.20;99.90;;;;;;5078179;28;20213;-77
2021/07/01 04:15:25;;;;;;;1999.90;999.90;;;13.20;99.90;;;;;;5073261;28;21372;-77
2021/07/01 04:17:51;;;;;;;1999.90;999.90;;;13.10;99.90;;;;;;5086956;28;20176;-77
2021/07/01 04:20:17;;;;;;;1999.90;999.90;;;13.20;99.90;;;;;;5070013;28;20187;-77
2021/07/01 04:22:43;;;;;;;1999.90;999.90;;;13.20;99.90;;;;;;5074975;28;20181;-77
2021/07/01 04:25:10;;;;;;;1999.90;999.90;;;13.30;99.90;;;;;;5056144;28;20207;-77
2021/07/01 04:27:35;;;;;;;1999.90;999.90;;;13.30;99.90;;;;;;5073562;28;20650;-77
2021/07/01 04:30:02;;;;;;;1999.90;999.90;;;13.30;99.90;;;;;;5073179;28;20180;-77
2021/07/01 04:32:28;;;;;;;1999.90;999.90;;;13.20;99.90;;;;;;5073914;28;20239;-77
2021/07/01 04:34:53;;;;;;;1999.90;999.90;;;13.20;99.90;;;;;;5073889;28;20203;-77
2021/07/01 04:37:19;;;;;;;1999.90;999.90;;;13.20;99.90;;;;;;5055415;28;20281;-76
2021/07/01 04:39:45;;;;;;;1999.90;999.90;;;13.40;99.90;;;;;;5072438;28;20676;-77
2021/07/01 04:42:11;;;;;;;1999.90;999.90;;;13.40;99.90;;;;;;5070863;28;20551;-77
2021/07/01 04:44:36;;;;;;;1999.90;999.90;;;13.40;99.90;;;;;;5072366;28;20261;-77
2021/07/01 04:47:02;;;;;;;1999.90;999.90;;;13.50;99.90;;;;;;5057503;28;20285;-77
2021/07/01 04:49:28;;;;;;;1999.90;999.90;;;13.50;99.90;;;;;;5072945;28;20180;-77
2021/07/01 04:51:54;;;;;;;1999.90;999.90;;;13.40;99.90;;;;;;5076684;28;20222;-80
2021/07/01 04:54:19;;;;;;;1999.90;999.90;;;13.30;99.90;;;;;;5056243;28;20175;-81
2021/07/01 04:56:45;;;;;;;1999.90;999.90;;;13.40;99.90;;;;;;5055930;28;20203;-80
2021/07/01 04:59:16;;;;;;;1999.90;999.90;;;13.40;99.90;;;;;;5076174;28;20280;-80
2021/07/01 05:01:44;;;;;;;1999.90;999.90;;;13.50;99.90;;;;;;5076627;28;20176;-81
2021/07/01 05:04:11;;;;;;;1999.90;999.90;;;13.50;99.90;;;;;;5058913;28;20190;-80
2021/07/01 05:06:38;;;;;;;1999.90;999.90;;;13.40;99.90;;;;;;5058326;28;20215;-80
2021/07/01 05:09:06;;;;;;;1999.90;999.90;;;13.40;99.90;;;;;;5076858;28;20184;-80
2021/07/01 05:11:32;;;;;;;1999.90;999.90;;;13.40;99.90;;;;;;5058371;28;20195;-80
2021/07/01 05:13:58;;;;;;;1999.90;999.90;;;13.50;99.90;;;;;;5076068;28;20184;-80
2021/07/01 05:16:27;;;;;;;1999.90;999.90;;;13.60;99.90;;;;;;5076222;28;20200;-80
2021/07/01 05:18:53;;;;;;;1999.90;999.90;;;13.60;99.90;;;;;;5081374;28;20177;-80
2021/07/01 05:21:19;;;;;;;1999.90;999.90;;;13.50;99.90;;;;;;5075219;28;20184;-80
2021/07/01 05:23:44;;;;;;;1999.90;999.90;;;13.50;99.90;;;;;;5076894;28;20177;-80
2021/07/01 05:26:10;;;;;;;1999.90;999.90;;;13.50;99.90;;;;;;5060252;28;20250;-81
2021/07/01 05:28:35;;;;;;;1999.90;999.90;;;13.40;99.90;;;;;;5060668;28;20188;-81
2021/07/01 05:31:01;;;;;;;1999.90;999.90;;;13.40;99.90;;;;;;5060632;28;20197;-80
2021/07/01 05:33:27;;;;;;;1999.90;999.90;;;13.50;99.90;;;;;;5078457;28;20173;-81
2021/07/01 05:35:52;;;;;;;1999.90;999.90;;;13.60;99.90;;;;;;5077931;28;20253;-81
2021/07/01 05:38:18;;;;;;;1999.90;999.90;;;13.40;99.90;;;;;;5079020;28;20175;-81
2021/07/01 05:40:43;;;;;;;1999.90;999.90;;;13.40;99.90;;;;;;5061212;28;20249;-80
2021/07/01 05:43:09;;;;;;;1999.90;999.90;;;13.50;99.90;;;;;;5060694;28;20596;-81
2021/07/01 05:45:35;;;;;;;1999.90;999.90;;;13.60;99.90;;;;;;5078669;28;20252;-81
2021/07/01 05:48:01;;;;;;;1999.90;999.90;;;13.60;99.90;;;;;;5079577;28;20173;-81
2021/07/01 05:50:28;;;;;;;1999.90;999.90;;;13.60;99.90;;;;;;5079203;28;20175;-80
2021/07/01 05:53:05;;;;;;;1999.90;999.90;;;13.60;99.90;;;;;;5079185;28;20283;-81
2021/07/01 05:55:31;;;;;;;1999.90;999.90;;;13.50;99.90;;;;;;5082180;28;20269;-81
2021/07/01 05:57:57;;;;;;;1999.90;999.90;;;13.50;99.90;;;;;;5064751;28;20176;-82
2021/07/01 06:00:24;;;;;;;1999.90;999.90;;;13.50;99.90;;;;;;5082575;28;20207;-80
2021/07/01 06:02:50;;;;;;;1999.90;999.90;;;13.50;99.90;;;;;;5082596;28;20240;-80
2021/07/01 06:05:16;;;;;;;1999.90;999.90;;;13.60;99.90;;;;;;5083464;28;20275;-81
2021/07/01 06:07:46;;;;;;;1999.90;999.90;;;13.60;99.90;;;;;;5064923;28;20553;-80
2021/07/01 06:10:14;;;;;;;1999.90;999.90;;;13.50;99.90;;;;;;5082049;28;20258;-81
2021/07/01 06:12:40;;;;;;;1999.90;999.90;;;13.50;99.90;;;;;;5082355;28;20203;-81
2021/07/01 06:15:06;;;;;;;1999.90;999.90;;;13.50;99.90;;;;;;5082416;28;20220;-81
2021/07/01 06:17:33;;;;;;;1999.90;999.90;;;13.50;99.90;;;;;;5092505;28;20172;-81
2021/07/01 06:20:01;;;;;;;1999.90;999.90;;;13.50;99.90;;;;;;5085329;28;20195;-80
2021/07/01 06:22:28;;;;;;;1999.90;999.90;;;13.50;99.90;;;;;;5081909;28;20221;-81
2021/07/01 06:24:55;;;;;;;1999.90;999.90;;;13.50;99.90;;;;;;5061640;28;20185;-81
2021/07/01 06:27:43;;;;;;;1999.90;999.90;;;13.60;99.90;;;;;;5081858;28;20194;-81
2021/07/01 06:30:22;;;;;;;1999.90;999.90;;;13.60;99.90;;;;;;5063490;28;20196;-80
2021/07/01 06:32:51;;;;;;;1999.90;999.90;;;13.70;99.90;;;;;;5063405;28;20230;-81
2021/07/01 06:35:19;;;;;;;1999.90;999.90;;;13.70;99.90;;;;;;5081489;28;20298;-80
2021/07/01 06:37:46;;;;;;;1999.90;999.90;;;13.70;99.90;;;;;;5081358;28;20673;-81
2021/07/01 06:40:13;;;;;;;1999.90;999.90;;;13.80;99.90;;;;;;5081289;28;20271;-80
2021/07/01 06:42:54;;;;;;;1999.90;999.90;;;13.70;99.90;;;;;;5067080;28;20189;-81
2021/07/01 06:45:20;;;;;;;1999.90;999.90;;;13.80;99.90;;;;;;5089553;28;20231;-80
2021/07/01 06:47:51;;;;;;;1999.90;999.90;;;14.00;99.90;;;;;;5080792;28;20264;-81
2021/07/01 06:50:20;;;;;;;1999.90;999.90;;;14.00;99.90;;;;;;5081547;28;20183;-80
2021/07/01 06:52:46;;;;;;;1999.90;999.90;;;14.10;99.90;;;;;;5081294;28;20676;-80
2021/07/01 06:55:14;;;;;;;1999.90;999.90;;;14.00;99.90;;;;;;5080934;28;20198;-81
2021/07/01 06:57:40;;;;;;;1999.90;999.90;;;14.00;99.90;;;;;;5062593;28;20179;-80
2021/07/01 07:00:08;;;;;;;1999.90;999.90;;;14.00;99.90;;;;;;5070806;28;20260;-80
2021/07/01 07:02:34;;;;;;;1999.90;999.90;;;14.10;99.90;;;;;;5081147;28;20243;-81
2021/07/01 07:05:09;;;;;;;1999.90;999.90;;;14.10;99.90;;;;;;5081116;28;20219;-81
2021/07/01 07:07:35;;;;;;;1999.90;999.90;;;14.10;99.90;;;;;;5081548;28;20177;-79
2021/07/01 07:10:04;;;;;;;1999.90;999.90;;;14.20;99.90;;;;;;5081461;28;20715;-81
2021/07/01 07:12:32;;;;;;;1999.90;999.90;;;14.20;99.90;;;;;;5063872;28;20207;-82
2021/07/01 07:14:58;;;;;;;1999.90;999.90;;;14.20;99.90;;;;;;5080769;28;20569;-80
2021/07/01 07:17:28;;;;;;;1999.90;999.90;;;14.30;99.90;;;;;;5073360;28;20239;-81
2021/07/01 07:19:57;;;;;;;1999.90;999.90;;;14.30;99.90;;;;;;5085391;28;20236;-80
2021/07/01 07:22:27;;;;;;;1999.90;999.90;;;14.30;99.90;;;;;;5080708;28;20259;-80
2021/07/01 07:24:54;;;;;;;1999.90;999.90;;;14.30;99.90;;;;;;5081168;28;20191;-81
2021/07/01 07:27:28;;;;;;;1999.90;999.90;;;14.30;99.90;;;;;;5089489;28;20206;-80
2021/07/01 07:29:54;;;;;;;1999.90;999.90;;;14.30;99.90;;;;;;5087031;28;20238;-81
2021/07/01 07:32:22;;;;;;;1999.90;999.90;;;14.30;99.90;;;;;;5080816;28;20209;-81
2021/07/01 07:34:49;;;;;;;1999.90;999.90;;;14.40;99.90;;;;;;5063609;28;20200;-80
2021/07/01 07:37:15;;;;;;;1999.90;999.90;;;14.40;99.90;;;;;;5062697;28;20189;-82
2021/07/01 07:39:41;;;;;;;1999.90;999.90;;;14.60;99.90;;;;;;5080790;28;20181;-81
2021/07/01 07:42:07;;;;;;;1999.90;999.90;;;14.60;99.90;;;;;;5080841;28;20192;-81
2021/07/01 07:44:35;;;;;;;1999.90;999.90;;;14.50;99.90;;;;;;5063330;28;20597;-82
2021/07/01 07:47:02;;;;;;;1999.90;999.90;;;14.60;99.90;;;;;;5080397;28;20212;-82
2021/07/01 07:49:28;;;;;;;1999.90;999.90;;;14.50;99.90;;;;;;5063327;28;20601;-81
2021/07/01 07:51:55;;;;;;;1999.90;999.90;;;14.60;99.90;;;;;;5090581;28;20208;-81
2021/07/01 07:54:26;;;;;;;1999.90;999.90;;;14.60;99.90;;;;;;5085225;28;20184;-81
2021/07/01 07:56:55;;;;;;;1999.90;999.90;;;14.60;99.90;;;;;;5080213;28;20193;-80
2021/07/01 07:59:23;;;;;;;1999.90;999.90;;;14.80;99.90;;;;;;5063364;28;20196;-82
2021/07/01 08:01:50;;;;;;;1999.90;999.90;;;14.80;99.90;;;;;;5074979;28;20176;-81
2021/07/01 08:04:17;;;;;;;1999.90;999.90;;;14.80;99.90;;;;;;5081579;28;20245;-81
2021/07/01 08:06:47;;;;;;;1999.90;999.90;;;14.90;99.90;;;;;;5080883;28;20679;-81
2021/07/01 08:09:13;;;;;;;1999.90;999.90;;;15.00;99.90;;;;;;5080565;28;20263;-81
2021/07/01 08:11:42;;;;;;;1999.90;999.90;;;15.00;99.90;;;;;;5080236;28;20229;-81
2021/07/01 08:14:08;;;;;;;1999.90;999.90;;;15.00;99.90;;;;;;5080371;28;20633;-83
2021/07/01 08:16:34;;;;;;;1999.90;999.90;;;15.10;99.90;;;;;;5079979;28;20197;-81
2021/07/01 08:19:00;;;;;;;1999.90;999.90;;;15.10;99.90;;;;;;5080138;28;20211;-80
2021/07/01 08:21:27;;;;;;;1999.90;999.90;;;15.10;99.90;;;;;;5079763;28;20193;-82
2021/07/01 08:23:53;;;;;;;1999.90;999.90;;;15.20;99.90;;;;;;5080313;28;20252;-81
2021/07/01 08:26:19;;;;;;;1999.90;999.90;;;15.30;99.90;;;;;;5062586;28;20220;-81
2021/07/01 08:28:45;;;;;;;1999.90;999.90;;;15.40;99.90;;;;;;5078187;28;20184;-83
2021/07/01 08:31:16;;;;;;;1999.90;999.90;;;15.40;99.90;;;;;;5079803;28;20204;-81
2021/07/01 08:33:44;;;;;;;1999.90;999.90;;;15.60;99.90;;;;;;5083916;28;20215;-81
2021/07/01 08:36:15;;;;;;;1999.90;999.90;;;15.60;99.90;;;;;;5061768;28;20253;-81
2021/07/01 08:38:42;;;;;;;1999.90;999.90;;;15.60;99.90;;;;;;5080063;28;20695;-81
2021/07/01 08:41:14;;;;;;;1999.90;999.90;;;15.70;99.90;;;;;;5085121;28;20176;-81
2021/07/01 08:44:01;;;;;;;1999.90;999.90;;;15.60;99.90;;;;;;5088622;28;20188;-81
2021/07/01 08:46:28;;;;;;;1999.90;999.90;;;15.60;99.90;;;;;;5061275;28;20197;-81
2021/07/01 08:49:34;;;;;;;1999.90;999.90;;;15.70;99.90;;;;;;5061759;28;20189;-81
2021/07/01 08:52:05;;;;;;;1999.90;999.90;;;15.70;99.90;;;;;;5071319;28;20265;-81
2021/07/01 08:54:36;;;;;;;1999.90;999.90;;;15.80;99.90;;;;;;5058995;28;20177;-81
2021/07/01 08:57:04;;;;;;;1999.90;999.90;;;15.90;99.90;;;;;;5080129;28;20189;-81
2021/07/01 08:59:44;;;;;;;1999.90;999.90;;;16.00;99.90;;;;;;5062415;28;20263;-81
2021/07/01 09:02:11;;;;;;;1999.90;999.90;;;16.00;99.90;;;;;;5061428;28;20539;-82
2021/07/01 09:04:56;;;;;;;1999.90;999.90;;;16.10;99.90;;;;;;5079496;28;20188;-81
2021/07/01 09:07:26;;;;;;;1999.90;999.90;;;16.10;99.90;;;;;;5046062;28;20207;-81
2021/07/01 09:09:58;;;;;;;1999.90;999.90;;;16.20;99.90;;;;;;5082587;28;20195;-80
2021/07/01 09:12:26;;;;;;;1999.90;999.90;;;16.40;99.90;;;;;;5070850;28;20203;-81
2021/07/01 09:15:05;;;;;;;1999.90;999.90;;;;;;;;;;5079319;28;20247;-80
2021/07/01 09:17:33;;;;;;;1999.90;999.90;;;16.80;99.90;;;;;;5061156;28;20185;-81
2021/07/01 09:20:02;;;;;;;1999.90;999.90;;;16.80;99.90;;;;;;5084189;28;20170;-80
2021/07/01 09:22:29;;;;;;;1999.90;999.90;;;16.90;99.90;;;;;;5061218;28;20215;-81
2021/07/01 09:24:56;;;;;;;1999.90;999.90;;;17.10;99.90;;;;;;5060712;28;20182;-81
2021/07/01 09:27:23;;;;;;;1999.90;999.90;;;17.30;99.90;;;;;;5095057;22;20237;-78
2021/07/01 09:29:50;;;;;;;1999.90;999.90;;;17.50;99.90;;;;;;5082321;28;20172;-78
2021/07/01 09:32:18;;;;;;;1999.90;999.90;;;17.40;99.90;;;;;;5082130;28;20198;-78
2021/07/01 09:34:46;;;;;;;1999.90;999.90;;;17.40;99.90;;;;;;5082404;28;20258;-78
2021/07/01 09:37:13;;;;;;;1999.90;999.90;;;17.40;99.90;;;;;;5083535;28;20196;-79
2021/07/01 09:39:39;;;;;;;1999.90;999.90;;;17.40;99.90;;;;;;5062610;28;20184;-79
2021/07/01 09:42:06;;;;;;;1999.90;999.90;;;17.30;99.90;;;;;;5061914;28;20222;-78
2021/07/01 09:44:34;;;;;;;1999.90;999.90;;;17.30;99.90;;;;;;5059923;28;20180;-79
2021/07/01 09:47:04;;;;;;;1999.90;999.90;;;17.30;99.90;;;;;;5061155;28;20205;-77
2021/07/01 09:49:51;;;;;;;1999.90;999.90;;;17.10;99.90;;;;;;5062338;28;20179;-78
2021/07/01 09:52:18;;;;;;;1999.90;999.90;;;16.90;99.90;;;;;;5060367;28;20581;-78
2021/07/01 09:54:49;;;;;;;1999.90;999.90;;;16.80;99.90;;;;;;5061953;28;20162;-78
2021/07/01 09:57:37;;;;;;;1999.90;999.90;;;16.80;99.90;;;;;;5061701;28;20686;-77
2021/07/01 10:00:13;;;;;;;1999.90;999.90;;;16.90;99.90;;;;;;5060636;28;20179;-78
2021/07/01 10:02:40;;;;;;;1999.90;999.90;;;16.90;99.90;;;;;;5060226;28;20201;-78
2021/07/01 10:05:25;;;;;;;1999.90;999.90;;;17.00;99.90;;;;;;5061629;28;20187;-78
2021/07/01 10:07:51;;;;;;;1999.90;999.90;;;17.00;99.90;;;;;;5061643;28;20208;-77
2021/07/01 10:10:17;;;;;;;1999.90;999.90;;;17.00;99.90;;;;;;5061794;28;20180;-78
2021/07/01 10:12:54;;;;;;;1999.90;999.90;;;17.00;99.90;;;;;;5061429;28;20198;-77
2021/07/01 10:15:27;;;;;;;1999.90;999.90;;;17.10;99.90;;;;;;5061370;28;20181;-78
2021/07/01 10:18:08;;;;;;;1999.90;999.90;;;17.30;99.90;;;;;;5061483;28;20280;-78
2021/07/01 10:20:42;;;;;;;1999.90;999.90;;;17.40;99.90;;;;;;5060136;28;20181;-78
2021/07/01 10:23:33;;;;;;;1999.90;999.90;;;17.40;99.90;;;;;;5060110;28;20178;-78
2021/07/01 10:26:09;;;;;;;1999.90;999.90;;;17.50;99.90;;;;;;5052029;28;20237;-78
2021/07/01 10:28:36;;;;;;;1999.90;999.90;;;17.60;99.90;;;;;;5061590;28;20535;-78
2021/07/01 10:31:05;;;;;;;1999.90;999.90;;;17.60;99.90;;;;;;5060070;28;20175;-78
2021/07/01 10:33:36;;;;;;;1999.90;999.90;;;17.60;99.90;;;;;;5060769;28;20181;-78
2021/07/01 10:36:04;;;;;;;1999.90;999.90;;;17.60;99.90;;;;;;5061009;28;20203;-78
2021/07/01 10:38:50;;;;;;;1999.90;999.90;;;17.50;99.90;;;;;;5061172;28;20254;-78
2021/07/01 10:41:34;;;;;;;1999.90;999.90;;;17.50;99.90;;;;;;5055627;28;20184;-78
2021/07/01 10:44:01;;;;;;;1999.90;999.90;;;17.50;99.90;;;;;;5072937;28;20181;-77
2021/07/01 10:46:39;;;;;;;1999.90;999.90;;;17.60;99.90;;;;;;5057274;28;20194;-78
2021/07/01 10:49:05;;;;;;;1999.90;999.90;;;17.80;99.90;;;;;;5057081;28;20229;-78
2021/07/01 10:51:32;;;;;;;1999.90;999.90;;;17.80;99.90;;;;;;5057679;28;20276;-77
2021/07/01 10:54:13;;;;;;;1999.90;999.90;;;17.80;99.90;;;;;;5055997;28;20541;-77
2021/07/01 10:56:41;;;;;;;1999.90;999.90;;;17.70;99.90;;;;;;5045027;28;20556;-78
2021/07/01 10:59:07;;;;;;;1999.90;999.90;;;17.80;99.90;;;;;;5056542;28;20655;-78
2021/07/01 11:01:36;;;;;;;1999.90;999.90;;;17.80;99.90;;;;;;5057215;28;20177;-77
2021/07/01 11:04:17;;;;;;;1999.90;999.90;;;17.90;99.90;;;;;;5056054;28;20185;-75
2021/07/01 11:06:45;;;;;;;1999.90;999.90;;;18.10;99.90;;;;;;5056452;28;20280;-77
2021/07/01 11:09:15;;;;;;;1999.90;999.90;;;18.20;99.90;;;;;;5055642;28;20176;-78
2021/07/01 11:11:42;;;;;;;1999.90;999.90;;;18.20;99.90;;;;;;5056883;28;20563;-78
2021/07/01 11:14:11;;;;;;;1999.90;999.90;;;18.40;99.90;;;;;;5056651;28;20181;-78
2021/07/01 11:16:45;;;;;;;1999.90;999.90;;;18.50;99.90;;;;;;5056740;28;20197;-77
2021/07/01 11:19:15;;;;;;;1999.90;999.90;;;18.60;99.90;;;;;;5057066;28;20222;-78
2021/07/01 11:21:52;;;;;;;1999.90;999.90;;;18.70;99.90;;;;;;5056221;28;20227;-78
2021/07/01 11:24:23;;;;;;;1999.90;999.90;;;18.70;99.90;;;;;;5056565;28;20572;-78
2021/07/01 11:26:54;;;;;;;1999.90;999.90;;;18.60;99.90;;;;;;5054970;28;20216;-78
2021/07/01 11:29:35;;;;;;;1999.90;999.90;;;18.60;99.90;;;;;;5055910;28;20187;-78
2021/07/01 11:32:01;;;;;;;1999.90;999.90;;;18.50;99.90;;;;;;5055702;28;20315;-80
2021/07/01 11:34:40;;;;;;;1999.90;999.90;;;18.40;99.90;;;;;;5054535;28;20197;-77
2021/07/01 11:37:07;;;;;;;1999.90;999.90;;;18.40;99.90;;;;;;5059132;28;20624;-77
2021/07/01 11:39:33;;;;;;;1999.90;999.90;;;18.40;99.90;;;;;;5052325;28;20180;-80
2021/07/01 11:42:02;;;;;;;1999.90;999.90;;;18.60;99.90;;;;;;5053647;28;20180;-78
2021/07/01 11:44:29;;;;;;;1999.90;999.90;;;18.60;99.90;;;;;;5054734;28;20172;-77
2021/07/01 11:46:56;;;;;;;1999.90;999.90;;;18.80;99.90;;;;;;5055013;28;20265;-77
2021/07/01 11:49:23;;;;;;;1999.90;999.90;;;19.10;99.90;;;;;;5049359;28;20177;-77
2021/07/01 11:51:49;;;;;;;1999.90;999.90;;;19.40;99.90;;;;;;5055929;28;20197;-77
2021/07/01 11:54:18;;;;;;;1999.90;999.90;;;19.50;99.90;;;;;;5054962;28;20186;-77
2021/07/01 11:56:58;;;;;;;1999.90;999.90;;;19.50;99.90;;;;;;5055605;28;20189;-77
2021/07/01 11:59:32;;;;;;;1999.90;999.90;;;19.40;99.90;;;;;;5055402;28;20181;-77
2021/07/01 12:02:00;;;;;;;1999.90;999.90;;;19.60;99.90;;;;;;5056921;28;20268;-77
2021/07/01 12:04:30;;;;;;;1999.90;999.90;;;19.60;99.90;;;;;;5055321;28;20955;-77
2021/07/01 12:07:14;;;;;;;1999.90;999.90;;;19.70;99.90;;;;;;5054230;28;20198;-78